Tabellarische Übersicht vom Samstag, den 17.02.2018

Oder anderes Datum wählen:






max 7,0°C 96,0% 1,2°C 1025,7hPa 7,0°C 0,0km/h (0Bft) 0,0km/h 0° (N) ∑0,0l/m² 47,000klx ∑0,0min
min -1,2°C 57,0% -1,9°C 1021,9hPa -1,0°C 0,0km/h (0Bft) 0,0km/h 0° (N) ∑0,0l/m² 0,000klx ∑0,0min
Ø 1,8°C 83,0% -1,0°C 1023,2hPa 2,0°C 0,0km/h (0Bft) 0,0km/h 0° (N) ∑0,0l/m² 15,000klx ∑0,0min
Zeit Temperatur Luftfeuchte Taupunkt Luftdruck Windchill Windböen Windgeschwindigkeit Windrichtung Regen Helligkeit Regenzeit
21:55 -0,8°C 91,2% -1,9°C 1024,8hPa -0,8°C 0,0km/h (0Bft) 0,0km/h 0,0l/m² 0,001klx 0,0min
21:50 -0,6°C 90,9% -1,8°C 1024,7hPa -0,6°C 0,0km/h (0Bft) 0,0km/h 0,0l/m² 0,001klx 0,0min
21:45 -0,6°C 91,1% -1,8°C 1024,6hPa -0,6°C 0,0km/h (0Bft) 0,0km/h 0,0l/m² 0,001klx 0,0min
21:40 -0,6°C 90,7% -1,8°C 1024,6hPa -0,6°C 0,0km/h (0Bft) 0,0km/h 0,0l/m² 0,001klx 0,0min
21:35 -0,6°C 90,8% -1,8°C 1024,5hPa -0,6°C 0,0km/h (0Bft) 0,0km/h 0,0l/m² 0,000klx 0,0min
21:30 -0,4°C 90,1% -1,7°C 1024,6hPa -0,4°C 0,0km/h (0Bft) 0,0km/h 0,0l/m² 0,001klx 0,0min
21:25 -0,4°C 90,2% -1,7°C 1024,5hPa -0,4°C 0,0km/h (0Bft) 0,0km/h 0,0l/m² 0,001klx 0,0min
21:20 -0,5°C 89,9% -1,7°C 1024,4hPa -0,5°C 0,0km/h (0Bft) 0,0km/h 0,0l/m² 0,001klx 0,0min
21:15 -0,4°C 89,8% -1,6°C 1024,4hPa -0,4°C 0,0km/h (0Bft) 0,0km/h 0,0l/m² 0,001klx 0,0min
21:10 -0,3°C 89,7% -1,6°C 1024,3hPa -0,3°C 0,0km/h (0Bft) 0,0km/h 0,0l/m² 0,000klx 0,0min
21:05 -0,3°C 89,2% -1,6°C 1024,2hPa -0,3°C 0,0km/h (0Bft) 0,0km/h 0,0l/m² 0,000klx 0,0min
21:00 -0,2°C 89,2% -1,6°C 1024,1hPa -0,2°C 0,0km/h (0Bft) 0,0km/h 0,0l/m² 0,001klx 0,0min
20:55 -0,1°C 89,1% -1,5°C 1024,2hPa -0,1°C 0,0km/h (0Bft) 0,0km/h 0,0l/m² 0,000klx 0,0min
20:50 -0,1°C 88,6% -1,5°C 1024,1hPa -0,1°C 0,0km/h (0Bft) 0,0km/h 0,0l/m² 0,000klx 0,0min
20:45 -0,2°C 88,9% -1,6°C 1024,1hPa -0,2°C 0,0km/h (0Bft) 0,0km/h 0,0l/m² 0,001klx 0,0min
20:40 -0,1°C 88,8% -1,5°C 1024,1hPa -0,1°C 0,0km/h (0Bft) 0,0km/h 0,0l/m² 0,001klx 0,0min
20:35 0,0°C 88,0% -1,7°C 1024,1hPa 0,0°C 0,0km/h (0Bft) 0,0km/h 0,0l/m² 0,000klx 0,0min
20:30 0,2°C 87,5% -1,7°C 1024,0hPa 0,2°C 0,0km/h (0Bft) 0,0km/h 0,0l/m² 0,000klx 0,0min
20:25 0,3°C 86,9% -1,6°C 1024,0hPa 0,3°C 0,0km/h (0Bft) 0,0km/h 0,0l/m² 0,001klx 0,0min
20:20 0,5°C 86,4% -1,6°C 1024,0hPa 0,5°C 0,0km/h (0Bft) 0,0km/h 0,0l/m² 0,000klx 0,0min
20:15 0,6°C 85,3% -1,6°C 1024,0hPa 0,6°C 0,0km/h (0Bft) 0,0km/h 0,0l/m² 0,000klx 0,0min
20:10 0,8°C 84,3% -1,5°C 1024,0hPa 0,8°C 0,0km/h (0Bft) 0,0km/h 0,0l/m² 0,001klx 0,0min
20:05 0,9°C 83,4% -1,6°C 1024,0hPa 0,9°C 0,0km/h (0Bft) 0,0km/h 0,0l/m² 0,000klx 0,0min
20:00 1,0°C 82,6% -1,6°C 1023,9hPa 1,0°C 0,0km/h (0Bft) 0,0km/h 0,0l/m² 0,001klx 0,0min
19:55 1,0°C 82,7% -1,7°C 1023,9hPa 1,0°C 0,0km/h (0Bft) 0,0km/h 0,0l/m² 0,000klx 0,0min
19:50 1,1°C 82,0% -1,6°C 1024,0hPa 1,1°C 0,0km/h (0Bft) 0,0km/h 0,0l/m² 0,001klx 0,0min
19:45 1,2°C 81,8% -1,6°C 1024,0hPa 1,2°C 0,0km/h (0Bft) 0,0km/h 0,0l/m² 0,000klx 0,0min
19:40 1,2°C 81,6% -1,6°C 1024,0hPa 1,2°C 0,0km/h (0Bft) 0,0km/h 0,0l/m² 0,001klx 0,0min
19:35 1,2°C 81,8% -1,6°C 1023,9hPa 1,2°C 0,0km/h (0Bft) 0,0km/h 0,0l/m² 0,000klx 0,0min
19:30 2,1°C 77,2% -1,5°C 1023,9hPa 2,1°C 0,0km/h (0Bft) 0,0km/h 0,0l/m² 0,001klx 0,0min
19:25 2,5°C 75,4% -1,4°C 1023,9hPa 2,5°C 0,0km/h (0Bft) 0,0km/h 0,0l/m² 0,000klx 0,0min
19:20 2,6°C 75,0% -1,4°C 1023,9hPa 2,6°C 0,0km/h (0Bft) 0,0km/h 0,0l/m² 0,000klx 0,0min
19:15 2,9°C 73,2% -1,5°C 1023,8hPa 2,9°C 0,0km/h (0Bft) 0,0km/h 0,0l/m² 0,000klx 0,0min
19:10 2,9°C 72,6% -1,5°C 1023,8hPa 2,9°C 0,0km/h (0Bft) 0,0km/h 0,0l/m² 0,001klx 0,0min
19:05 2,9°C 72,4% -1,6°C 1023,8hPa 2,9°C 0,0km/h (0Bft) 0,0km/h 0,0l/m² 0,000klx 0,0min
19:00 3,1°C 71,6% -1,6°C 1023,7hPa 3,1°C 0,0km/h (0Bft) 0,0km/h 0,0l/m² 0,000klx 0,0min
18:55 3,3°C 70,3% -1,6°C 1023,7hPa 3,3°C 0,0km/h (0Bft) 0,0km/h 0,0l/m² 0,000klx 0,0min
18:50 3,2°C 70,3% -1,7°C 1023,6hPa 3,2°C 0,0km/h (0Bft) 0,0km/h 0,0l/m² 0,000klx 0,0min
18:45 3,3°C 69,5% -1,7°C 1023,6hPa 3,3°C 0,0km/h (0Bft) 0,0km/h 0,0l/m² 0,001klx 0,0min
18:40 3,3°C 69,4% -1,8°C 1023,5hPa 3,3°C 0,0km/h (0Bft) 0,0km/h 0,0l/m² 0,001klx 0,0min
18:35 3,4°C 69,0% -1,7°C 1023,4hPa 3,4°C 0,0km/h (0Bft) 0,0km/h 0,0l/m² 0,001klx 0,0min
18:30 3,6°C 67,8% -1,8°C 1023,3hPa 3,6°C 0,0km/h (0Bft) 0,0km/h 0,0l/m² 0,003klx 0,0min
18:25 3,9°C 66,8% -1,8°C 1023,3hPa 3,9°C 0,0km/h (0Bft) 0,0km/h 0,0l/m² 0,006klx 0,0min
18:20 4,0°C 66,5% -1,7°C 1023,3hPa 4,0°C 0,0km/h (0Bft) 0,0km/h 0,0l/m² 0,015klx 0,0min
18:15 4,2°C 65,5% -1,7°C 1023,2hPa 4,2°C 0,0km/h (0Bft) 0,0km/h 0,0l/m² 0,039klx 0,0min
18:10 4,4°C 64,4% -1,7°C 1023,2hPa 4,4°C 0,0km/h (0Bft) 0,0km/h 0,0l/m² 0,090klx 0,0min
18:05 4,5°C 63,9% -1,8°C 1023,1hPa 4,5°C 0,0km/h (0Bft) 0,0km/h 0,0l/m² 0,188klx 0,0min
18:00 4,7°C 63,1% -1,7°C 1023,0hPa 4,7°C 0,0km/h (0Bft) 0,0km/h 0,0l/m² 0,358klx 0,0min
17:55 4,8°C 63,2% -1,7°C 1022,9hPa 4,8°C 0,0km/h (0Bft) 0,0km/h 0,0l/m² 0,619klx 0,0min
17:50 4,9°C 62,4% -1,7°C 1022,9hPa 4,9°C 0,0km/h (0Bft) 0,0km/h 0,0l/m² 0,979klx 0,0min
17:45 5,0°C 62,5% -1,6°C 1022,8hPa 5,0°C 0,0km/h (0Bft) 0,0km/h 0,0l/m² 1,453klx 0,0min
17:40 5,1°C 62,2% -1,6°C 1022,7hPa 5,1°C 0,0km/h (0Bft) 0,0km/h 0,0l/m² 2,005klx 0,0min
17:35 5,2°C 61,8% -1,5°C 1022,7hPa 5,2°C 0,0km/h (0Bft) 0,0km/h 0,0l/m² 2,569klx 0,0min
17:30 5,4°C 61,1% -1,5°C 1022,7hPa 5,4°C 0,0km/h (0Bft) 0,0km/h 0,0l/m² 3,123klx 0,0min
17:25 5,5°C 61,1% -1,4°C 1022,6hPa 5,5°C 0,0km/h (0Bft) 0,0km/h 0,0l/m² 3,671klx 0,0min
17:20 5,6°C 61,1% -1,3°C 1022,6hPa 5,6°C 0,0km/h (0Bft) 0,0km/h 0,0l/m² 4,171klx 0,0min
17:15 5,7°C 61,5% -1,1°C 1022,6hPa 5,7°C 0,0km/h (0Bft) 0,0km/h 0,0l/m² 4,624klx 0,0min
17:10 5,9°C 61,2% -1,0°C 1022,5hPa 5,9°C 0,0km/h (0Bft) 0,0km/h 0,0l/m² 5,656klx 0,0min
17:05 6,0°C 61,2% -0,9°C 1022,5hPa 6,0°C 0,0km/h (0Bft) 0,0km/h 0,0l/m² 6,549klx 0,0min
17:00 6,0°C 61,2% -0,9°C 1022,4hPa 6,0°C 0,0km/h (0Bft) 0,0km/h 0,0l/m² 7,497klx 0,0min
16:55 6,0°C 60,8% -1,0°C 1022,4hPa 6,0°C 0,0km/h (0Bft) 0,0km/h 0,0l/m² 8,422klx 0,0min
16:50 6,1°C 60,6% -1,0°C 1022,4hPa 6,1°C 0,0km/h (0Bft) 0,0km/h 0,0l/m² 9,412klx 0,0min
16:45 6,1°C 60,7% -1,0°C 1022,4hPa 6,1°C 0,0km/h (0Bft) 0,0km/h 0,0l/m² 9,790klx 0,0min
16:40 6,1°C 60,8% -0,9°C 1022,4hPa 6,1°C 0,0km/h (0Bft) 0,0km/h 0,0l/m² 10,185klx 0,0min
16:35 6,2°C 60,4% -0,9°C 1022,4hPa 6,2°C 0,0km/h (0Bft) 0,0km/h 0,0l/m² 10,700klx 0,0min
16:30 6,3°C 60,4% -0,9°C 1022,3hPa 6,3°C 0,0km/h (0Bft) 0,0km/h 0,0l/m² 12,191klx 0,0min
16:25 6,3°C 61,0% -0,7°C 1022,3hPa 6,3°C 0,0km/h (0Bft) 0,0km/h 0,0l/m² 11,894klx 0,0min
16:20 6,3°C 61,7% -0,6°C 1022,3hPa 6,3°C 0,0km/h (0Bft) 0,0km/h 0,0l/m² 11,794klx 0,0min
16:15 6,3°C 61,9% -0,5°C 1022,3hPa 6,3°C 0,0km/h (0Bft) 0,0km/h 0,0l/m² 12,676klx 0,0min
16:10 6,3°C 61,7% -0,5°C 1022,3hPa 6,3°C 0,0km/h (0Bft) 0,0km/h 0,0l/m² 13,364klx 0,0min
16:05 6,4°C 61,2% -0,5°C 1022,3hPa 6,4°C 0,0km/h (0Bft) 0,0km/h 0,0l/m² 13,655klx 0,0min
16:00 6,5°C 60,7% -0,6°C 1022,2hPa 6,5°C 0,0km/h (0Bft) 0,0km/h 0,0l/m² 13,706klx 0,0min
15:55 6,4°C 60,9% -0,6°C 1022,3hPa 6,4°C 0,0km/h (0Bft) 0,0km/h 0,0l/m² 14,205klx 0,0min
15:50 6,4°C 60,8% -0,6°C 1022,3hPa 6,4°C 0,0km/h (0Bft) 0,0km/h 0,0l/m² 14,711klx 0,0min
15:45 6,3°C 60,7% -0,7°C 1022,3hPa 6,3°C 0,0km/h (0Bft) 0,0km/h 0,0l/m² 15,168klx 0,0min
15:40 6,4°C 61,3% -0,5°C 1022,3hPa 6,4°C 0,0km/h (0Bft) 0,0km/h 0,0l/m² 14,795klx 0,0min
15:35 6,4°C 61,3% -0,5°C 1022,3hPa 6,4°C 0,0km/h (0Bft) 0,0km/h 0,0l/m² 14,495klx 0,0min
15:30 6,3°C 60,9% -0,7°C 1022,3hPa 6,3°C 0,0km/h (0Bft) 0,0km/h 0,0l/m² 14,467klx 0,0min
15:25 6,4°C 60,9% -0,6°C 1022,2hPa 6,4°C 0,0km/h (0Bft) 0,0km/h 0,0l/m² 14,795klx 0,0min
15:20 6,5°C 59,8% -0,8°C 1022,2hPa 6,5°C 0,0km/h (0Bft) 0,0km/h 0,0l/m² 16,146klx 0,0min
15:15 6,5°C 59,6% -0,8°C 1022,1hPa 6,5°C 0,0km/h (0Bft) 0,0km/h 0,0l/m² 16,266klx 0,0min
15:10 6,6°C 58,8% -0,9°C 1022,1hPa 6,6°C 0,0km/h (0Bft) 0,0km/h 0,0l/m² 16,541klx 0,0min
15:05 6,5°C 59,4% -0,8°C 1022,1hPa 6,5°C 0,0km/h (0Bft) 0,0km/h 0,0l/m² 18,311klx 0,0min
15:00 6,7°C 58,2% -0,9°C 1022,1hPa 6,7°C 0,0km/h (0Bft) 0,0km/h 0,0l/m² 20,502klx 0,0min
14:55 6,7°C 58,2% -1,0°C 1022,1hPa 6,7°C 0,0km/h (0Bft) 0,0km/h 0,0l/m² 22,310klx 0,0min
14:50 6,6°C 58,0% -1,1°C 1022,1hPa 6,6°C 0,0km/h (0Bft) 0,0km/h 0,0l/m² 22,198klx 0,0min
14:45 6,8°C 57,7% -1,0°C 1022,1hPa 6,8°C 0,0km/h (0Bft) 0,0km/h 0,0l/m² 23,005klx 0,0min
14:40 6,8°C 57,9% -1,0°C 1022,1hPa 6,8°C 0,0km/h (0Bft) 0,0km/h 0,0l/m² 26,418klx 0,0min
14:35 6,8°C 57,7% -1,0°C 1022,1hPa 6,8°C 0,0km/h (0Bft) 0,0km/h 0,0l/m² 25,444klx 0,0min
14:30 6,7°C 57,5% -1,1°C 1022,1hPa 6,7°C 0,0km/h (0Bft) 0,0km/h 0,0l/m² 25,158klx 0,0min
14:25 6,7°C 57,6% -1,0°C 1022,0hPa 6,7°C 0,0km/h (0Bft) 0,0km/h 0,0l/m² 26,887klx 0,0min
14:20 6,7°C 57,8% -1,1°C 1022,0hPa 6,7°C 0,0km/h (0Bft) 0,0km/h 0,0l/m² 26,912klx 0,0min
14:15 6,8°C 57,6% -1,0°C 1022,0hPa 6,8°C 0,0km/h (0Bft) 0,0km/h 0,0l/m² 25,503klx 0,0min
14:10 6,8°C 58,0% -0,9°C 1021,9hPa 6,8°C 0,0km/h (0Bft) 0,0km/h 0,0l/m² 33,683klx 0,0min
14:05 7,0°C 57,3% -0,9°C 1022,0hPa 7,0°C 0,0km/h (0Bft) 0,0km/h 0,0l/m² 38,289klx 0,0min
14:00 6,9°C 57,5% -0,9°C 1022,0hPa 6,9°C 0,0km/h (0Bft) 0,0km/h 0,0l/m² 33,776klx 0,0min
13:55 7,0°C 57,8% -0,7°C 1022,1hPa 7,0°C 0,0km/h (0Bft) 0,0km/h 0,0l/m² 46,562klx 0,0min
13:50 6,6°C 57,3% -1,2°C 1022,1hPa 6,6°C 0,0km/h (0Bft) 0,0km/h 0,0l/m² 42,312klx 0,0min
13:45 6,6°C 57,9% -1,1°C 1022,1hPa 6,6°C 0,0km/h (0Bft) 0,0km/h 0,0l/m² 33,831klx 0,0min
13:40 6,6°C 58,4% -1,0°C 1022,1hPa 6,6°C 0,0km/h (0Bft) 0,0km/h 0,0l/m² 34,177klx 0,0min
13:35 6,7°C 59,4% -0,7°C 1022,1hPa 6,7°C 0,0km/h (0Bft) 0,0km/h 0,0l/m² 36,710klx 0,0min
13:30 6,5°C 59,9% -0,7°C 1022,1hPa 6,5°C 0,0km/h (0Bft) 0,0km/h 0,0l/m² 40,337klx 0,0min
13:25 6,4°C 60,3% -0,8°C 1022,0hPa 6,4°C 0,0km/h (0Bft) 0,0km/h 0,0l/m² 38,366klx 0,0min
13:20 6,2°C 61,2% -0,7°C 1022,0hPa 6,2°C 0,0km/h (0Bft) 0,0km/h 0,0l/m² 34,761klx 0,0min
13:15 6,0°C 63,0% -0,5°C 1021,9hPa 6,0°C 0,0km/h (0Bft) 0,0km/h 0,0l/m² 28,110klx 0,0min
13:10 5,8°C 66,0% -0,1°C 1022,0hPa 5,8°C 0,0km/h (0Bft) 0,0km/h 0,0l/m² 24,285klx 0,0min
13:05 5,7°C 67,1% 0,0°C 1022,0hPa 5,7°C 0,0km/h (0Bft) 0,0km/h 0,0l/m² 23,536klx 0,0min
13:00 5,8°C 68,5% 0,4°C 1021,9hPa 5,8°C 0,0km/h (0Bft) 0,0km/h 0,0l/m² 24,788klx 0,0min
12:55 5,7°C 68,6% 0,4°C 1022,0hPa 5,7°C 0,0km/h (0Bft) 0,0km/h 0,0l/m² 26,628klx 0,0min
12:50 5,7°C 69,1% 0,5°C 1022,0hPa 5,7°C 0,0km/h (0Bft) 0,0km/h 0,0l/m² 28,897klx 0,0min
12:45 5,7°C 69,6% 0,6°C 1022,1hPa 5,7°C 0,0km/h (0Bft) 0,0km/h 0,0l/m² 30,600klx 0,0min
12:40 5,4°C 71,1% 0,6°C 1022,0hPa 5,4°C 0,0km/h (0Bft) 0,0km/h 0,0l/m² 30,451klx 0,0min
12:35 5,2°C 71,8% 0,5°C 1022,1hPa 5,2°C 0,0km/h (0Bft) 0,0km/h 0,0l/m² 29,396klx 0,0min
12:30 5,2°C 72,4% 0,6°C 1022,1hPa 5,2°C 0,0km/h (0Bft) 0,0km/h 0,0l/m² 29,561klx 0,0min
12:25 5,1°C 75,0% 1,0°C 1022,2hPa 5,1°C 0,0km/h (0Bft) 0,0km/h 0,0l/m² 30,731klx 0,0min
12:20 4,7°C 78,0% 1,2°C 1022,2hPa 4,7°C 0,0km/h (0Bft) 0,0km/h 0,0l/m² 33,295klx 0,0min
12:15 4,3°C 80,2% 1,2°C 1022,2hPa 4,3°C 0,0km/h (0Bft) 0,0km/h 0,0l/m² 37,584klx 0,0min
12:10 4,0°C 80,4% 1,0°C 1022,3hPa 4,0°C 0,0km/h (0Bft) 0,0km/h 0,0l/m² 36,739klx 0,0min
12:05 3,8°C 81,3% 0,9°C 1022,2hPa 3,8°C 0,0km/h (0Bft) 0,0km/h 0,0l/m² 30,374klx 0,0min
12:00 3,7°C 82,2% 0,9°C 1022,3hPa 3,7°C 0,0km/h (0Bft) 0,0km/h 0,0l/m² 26,994klx 0,0min
11:55 3,4°C 83,0% 0,8°C 1022,3hPa 3,4°C 0,0km/h (0Bft) 0,0km/h 0,0l/m² 26,050klx 0,0min
11:50 3,1°C 83,7% 0,6°C 1022,3hPa 3,1°C 0,0km/h (0Bft) 0,0km/h 0,0l/m² 24,785klx 0,0min
11:45 3,1°C 84,9% 0,8°C 1022,2hPa 3,1°C 0,0km/h (0Bft) 0,0km/h 0,0l/m² 25,970klx 0,0min
11:40 2,9°C 86,9% 1,0°C 1022,3hPa 2,9°C 0,0km/h (0Bft) 0,0km/h 0,0l/m² 25,599klx 0,0min
11:35 2,8°C 85,6% 0,7°C 1022,2hPa 2,8°C 0,0km/h (0Bft) 0,0km/h 0,0l/m² 21,957klx 0,0min
11:30 2,7°C 86,3% 0,7°C 1022,2hPa 2,7°C 0,0km/h (0Bft) 0,0km/h 0,0l/m² 21,655klx 0,0min
11:25 2,7°C 86,0% 0,6°C 1022,1hPa 2,7°C 0,0km/h (0Bft) 0,0km/h 0,0l/m² 21,343klx 0,0min
11:20 2,8°C 85,9% 0,7°C 1022,1hPa 2,8°C 0,0km/h (0Bft) 0,0km/h 0,0l/m² 22,707klx 0,0min
11:15 2,8°C 86,1% 0,7°C 1022,1hPa 2,8°C 0,0km/h (0Bft) 0,0km/h 0,0l/m² 23,720klx 0,0min
11:10 2,7°C 85,2% 0,4°C 1022,1hPa 2,7°C 0,0km/h (0Bft) 0,0km/h 0,0l/m² 22,363klx 0,0min
11:05 2,5°C 84,9% 0,2°C 1022,1hPa 2,5°C 0,0km/h (0Bft) 0,0km/h 0,0l/m² 22,548klx 0,0min
11:00 2,4°C 85,5% 0,2°C 1022,1hPa 2,4°C 0,0km/h (0Bft) 0,0km/h 0,0l/m² 23,009klx 0,0min
10:55 2,2°C 85,9% 0,1°C 1022,1hPa 2,2°C 0,0km/h (0Bft) 0,0km/h 0,0l/m² 21,541klx 0,0min
10:50 2,2°C 86,8% 0,2°C 1022,1hPa 2,2°C 0,0km/h (0Bft) 0,0km/h 0,0l/m² 20,869klx 0,0min
10:45 2,0°C 87,8% 0,2°C 1022,1hPa 2,0°C 0,0km/h (0Bft) 0,0km/h 0,0l/m² 19,883klx 0,0min
10:40 1,9°C 88,3% 0,2°C 1022,1hPa 1,9°C 0,0km/h (0Bft) 0,0km/h 0,0l/m² 17,852klx 0,0min
10:35 1,7°C 88,3% 0,0°C 1022,0hPa 1,7°C 0,0km/h (0Bft) 0,0km/h 0,0l/m² 15,176klx 0,0min
10:30 1,6°C 88,7% -0,1°C 1022,0hPa 1,6°C 0,0km/h (0Bft) 0,0km/h 0,0l/m² 13,924klx 0,0min
10:25 1,6°C 89,8% 0,1°C 1022,0hPa 1,6°C 0,0km/h (0Bft) 0,0km/h 0,0l/m² 14,206klx 0,0min
10:20 1,4°C 91,0% 0,1°C 1022,0hPa 1,4°C 0,0km/h (0Bft) 0,0km/h 0,0l/m² 14,336klx 0,0min
10:15 1,3°C 91,6% 0,1°C 1022,0hPa 1,3°C 0,0km/h (0Bft) 0,0km/h 0,0l/m² 13,957klx 0,0min
10:10 1,1°C 92,1% 0,0°C 1022,0hPa 1,1°C 0,0km/h (0Bft) 0,0km/h 0,0l/m² 12,673klx 0,0min
10:05 1,0°C 92,2% -0,1°C 1022,1hPa 1,0°C 0,0km/h (0Bft) 0,0km/h 0,0l/m² 11,382klx 0,0min
10:00 0,9°C 92,2% -0,2°C 1022,0hPa 0,9°C 0,0km/h (0Bft) 0,0km/h 0,0l/m² 10,731klx 0,0min
09:55 0,9°C 92,1% -0,3°C 1022,0hPa 0,9°C 0,0km/h (0Bft) 0,0km/h 0,0l/m² 9,909klx 0,0min
09:50 0,8°C 92,1% -0,3°C 1022,0hPa 0,8°C 0,0km/h (0Bft) 0,0km/h 0,0l/m² 8,849klx 0,0min
09:45 0,8°C 92,2% -0,3°C 1022,0hPa 0,8°C 0,0km/h (0Bft) 0,0km/h 0,0l/m² 7,906klx 0,0min
09:40 0,7°C 92,1% -0,4°C 1022,0hPa 0,7°C 0,0km/h (0Bft) 0,0km/h 0,0l/m² 7,441klx 0,0min
09:35 0,6°C 92,0% -0,5°C 1022,0hPa 0,6°C 0,0km/h (0Bft) 0,0km/h 0,0l/m² 6,982klx 0,0min
09:30 0,5°C 92,4% -0,5°C 1022,0hPa 0,5°C 0,0km/h (0Bft) 0,0km/h 0,0l/m² 6,506klx 0,0min
09:25 0,5°C 92,5% -0,6°C 1022,1hPa 0,5°C 0,0km/h (0Bft) 0,0km/h 0,0l/m² 6,337klx 0,0min
09:20 0,5°C 92,6% -0,6°C 1022,1hPa 0,5°C 0,0km/h (0Bft) 0,0km/h 0,0l/m² 6,094klx 0,0min
09:15 0,4°C 93,0% -0,6°C 1022,1hPa 0,4°C 0,0km/h (0Bft) 0,0km/h 0,0l/m² 5,488klx 0,0min
09:10 0,2°C 93,2% -0,7°C 1022,1hPa 0,2°C 0,0km/h (0Bft) 0,0km/h 0,0l/m² 4,903klx 0,0min
09:05 0,2°C 93,1% -0,8°C 1022,1hPa 0,2°C 0,0km/h (0Bft) 0,0km/h 0,0l/m² 4,396klx 0,0min
09:00 0,2°C 93,2% -0,8°C 1022,0hPa 0,2°C 0,0km/h (0Bft) 0,0km/h 0,0l/m² 3,898klx 0,0min
08:55 0,1°C 93,4% -0,8°C 1022,1hPa 0,1°C 0,0km/h (0Bft) 0,0km/h 0,0l/m² 3,752klx 0,0min
08:50 0,0°C 93,5% -0,9°C 1022,1hPa 0,0°C 0,0km/h (0Bft) 0,0km/h 0,0l/m² 3,603klx 0,0min
08:45 -0,1°C 93,7% -0,9°C 1022,1hPa -0,1°C 0,0km/h (0Bft) 0,0km/h 0,0l/m² 3,222klx 0,0min
08:40 -0,2°C 93,5% -1,0°C 1022,1hPa -0,2°C 0,0km/h (0Bft) 0,0km/h 0,0l/m² 2,893klx 0,0min
08:35 -0,1°C 93,7% -0,9°C 1022,1hPa -0,1°C 0,0km/h (0Bft) 0,0km/h 0,0l/m² 2,620klx 0,0min
08:30 -0,2°C 93,9% -0,9°C 1022,2hPa -0,2°C 0,0km/h (0Bft) 0,0km/h 0,0l/m² 2,296klx 0,0min
08:25 -0,3°C 94,0% -1,0°C 1022,2hPa -0,3°C 0,0km/h (0Bft) 0,0km/h 0,0l/m² 1,941klx 0,0min
08:20 -0,3°C 94,7% -1,0°C 1022,2hPa -0,3°C 0,0km/h (0Bft) 0,0km/h 0,0l/m² 1,603klx 0,0min
08:15 -0,5°C 94,7% -1,2°C 1022,2hPa -0,5°C 0,0km/h (0Bft) 0,0km/h 0,0l/m² 1,354klx 0,0min
08:10 -0,5°C 94,9% -1,2°C 1022,2hPa -0,5°C 0,0km/h (0Bft) 0,0km/h 0,0l/m² 1,178klx 0,0min
08:05 -0,6°C 94,9% -1,2°C 1022,2hPa -0,6°C 0,0km/h (0Bft) 0,0km/h 0,0l/m² 0,989klx 0,0min
08:00 -0,7°C 94,8% -1,3°C 1022,2hPa -0,7°C 0,0km/h (0Bft) 0,0km/h 0,0l/m² 0,767klx 0,0min
07:55 -0,5°C 94,9% -1,2°C 1022,1hPa -0,5°C 0,0km/h (0Bft) 0,0km/h 0,0l/m² 0,572klx 0,0min
07:50 -0,6°C 94,7% -1,3°C 1022,2hPa -0,6°C 0,0km/h (0Bft) 0,0km/h 0,0l/m² 0,412klx 0,0min
07:45 -0,5°C 94,5% -1,2°C 1022,2hPa -0,5°C 0,0km/h (0Bft) 0,0km/h 0,0l/m² 0,284klx 0,0min
07:40 -0,5°C 94,5% -1,2°C 1022,4hPa -0,5°C 0,0km/h (0Bft) 0,0km/h 0,0l/m² 0,182klx 0,0min
07:35 -0,6°C 94,2% -1,3°C 1022,5hPa -0,6°C 0,0km/h (0Bft) 0,0km/h 0,0l/m² 0,105klx 0,0min
07:30 -0,5°C 94,2% -1,3°C 1022,6hPa -0,5°C 0,0km/h (0Bft) 0,0km/h 0,0l/m² 0,055klx 0,0min
07:25 -0,5°C 94,2% -1,2°C 1022,6hPa -0,5°C 0,0km/h (0Bft) 0,0km/h 0,0l/m² 0,026klx 0,0min
07:20 -0,5°C 94,0% -1,2°C 1022,7hPa -0,5°C 0,0km/h (0Bft) 0,0km/h 0,0l/m² 0,011klx 0,0min
07:15 -0,5°C 94,1% -1,2°C 1022,8hPa -0,5°C 0,0km/h (0Bft) 0,0km/h 0,0l/m² 0,005klx 0,0min
07:10 -0,5°C 94,2% -1,3°C 1022,8hPa -0,5°C 0,0km/h (0Bft) 0,0km/h 0,0l/m² 0,002klx 0,0min
07:05 -0,6°C 94,7% -1,2°C 1022,7hPa -0,6°C 0,0km/h (0Bft) 0,0km/h 0,0l/m² 0,001klx 0,0min
07:00 -0,7°C 94,9% -1,3°C 1022,7hPa -0,7°C 0,0km/h (0Bft) 0,0km/h 0,0l/m² 0,001klx 0,0min
06:55 -0,7°C 95,2% -1,3°C 1022,6hPa -0,7°C 0,0km/h (0Bft) 0,0km/h 0,0l/m² 0,001klx 0,0min
06:50 -0,8°C 95,4% -1,4°C 1022,6hPa -0,8°C 0,0km/h (0Bft) 0,0km/h 0,0l/m² 0,001klx 0,0min
06:45 -0,9°C 95,5% -1,4°C 1022,6hPa -0,9°C 0,0km/h (0Bft) 0,0km/h 0,0l/m² 0,000klx 0,0min
06:40 -0,9°C 95,4% -1,5°C 1022,6hPa -0,9°C 0,0km/h (0Bft) 0,0km/h 0,0l/m² 0,001klx 0,0min
06:35 -1,0°C 95,4% -1,5°C 1022,6hPa -1,0°C 0,0km/h (0Bft) 0,0km/h 0,0l/m² 0,001klx 0,0min
06:30 -0,9°C 95,6% -1,5°C 1022,6hPa -0,9°C 0,0km/h (0Bft) 0,0km/h 0,0l/m² 0,001klx 0,0min
06:25 -1,0°C 95,6% -1,5°C 1022,7hPa -1,0°C 0,0km/h (0Bft) 0,0km/h 0,0l/m² 0,000klx 0,0min
06:20 -1,0°C 95,6% -1,5°C 1022,8hPa -1,0°C 0,0km/h (0Bft) 0,0km/h 0,0l/m² 0,001klx 0,0min
06:15 -1,0°C 95,8% -1,5°C 1022,8hPa -1,0°C 0,0km/h (0Bft) 0,0km/h 0,0l/m² 0,000klx 0,0min
06:10 -1,1°C 95,6% -1,6°C 1022,8hPa -1,1°C 0,0km/h (0Bft) 0,0km/h 0,0l/m² 0,001klx 0,0min
06:05 -1,1°C 95,5% -1,6°C 1022,9hPa -1,1°C 0,0km/h (0Bft) 0,0km/h 0,0l/m² 0,001klx 0,0min
06:00 -1,1°C 95,6% -1,6°C 1023,0hPa -1,1°C 0,0km/h (0Bft) 0,0km/h 0,0l/m² 0,001klx 0,0min
05:55 -1,2°C 95,4% -1,8°C 1023,0hPa -1,2°C 0,0km/h (0Bft) 0,0km/h 0,0l/m² 0,001klx 0,0min
05:50 -1,1°C 95,3% -1,7°C 1023,2hPa -1,1°C 0,0km/h (0Bft) 0,0km/h 0,0l/m² 0,000klx 0,0min
05:45 -1,0°C 95,4% -1,6°C 1023,2hPa -1,0°C 0,0km/h (0Bft) 0,0km/h 0,0l/m² 0,001klx 0,0min
05:40 -1,0°C 95,6% -1,5°C 1023,2hPa -1,0°C 0,0km/h (0Bft) 0,0km/h 0,0l/m² 0,001klx 0,0min
05:35 -1,1°C 95,4% -1,6°C 1023,3hPa -1,1°C 0,0km/h (0Bft) 0,0km/h 0,0l/m² 0,001klx 0,0min
05:30 -1,0°C 95,5% -1,5°C 1023,2hPa -1,0°C 0,0km/h (0Bft) 0,0km/h 0,0l/m² 0,001klx 0,0min
05:25 -1,0°C 95,4% -1,5°C 1023,3hPa -1,0°C 0,0km/h (0Bft) 0,0km/h 0,0l/m² 0,000klx 0,0min
05:20 -1,0°C 95,5% -1,5°C 1023,4hPa -1,0°C 0,0km/h (0Bft) 0,0km/h 0,0l/m² 0,000klx 0,0min
05:15 -1,0°C 95,6% -1,5°C 1023,4hPa -1,0°C 0,0km/h (0Bft) 0,0km/h 0,0l/m² 0,001klx 0,0min
05:10 -1,1°C 95,6% -1,6°C 1023,5hPa -1,1°C 0,0km/h (0Bft) 0,0km/h 0,0l/m² 0,000klx 0,0min
05:05 -1,1°C 95,2% -1,7°C 1023,5hPa -1,1°C 0,0km/h (0Bft) 0,0km/h 0,0l/m² 0,000klx 0,0min
05:00 -1,1°C 95,1% -1,7°C 1023,6hPa -1,1°C 0,0km/h (0Bft) 0,0km/h 0,0l/m² 0,001klx 0,0min
04:55 -1,0°C 95,2% -1,6°C 1023,7hPa -1,0°C 0,0km/h (0Bft) 0,0km/h 0,0l/m² 0,001klx 0,0min
04:50 -1,1°C 95,1% -1,7°C 1023,6hPa -1,1°C 0,0km/h (0Bft) 0,0km/h 0,0l/m² 0,000klx 0,0min
04:45 -1,0°C 95,0% -1,6°C 1023,7hPa -1,0°C 0,0km/h (0Bft) 0,0km/h 0,0l/m² 0,001klx 0,0min
04:40 -1,1°C 94,8% -1,7°C 1023,7hPa -1,1°C 0,0km/h (0Bft) 0,0km/h 0,0l/m² 0,001klx 0,0min
04:35 -1,0°C 94,9% -1,6°C 1023,8hPa -1,0°C 0,0km/h (0Bft) 0,0km/h 0,0l/m² 0,001klx 0,0min
04:30 -0,9°C 95,1% -1,5°C 1023,9hPa -0,9°C 0,0km/h (0Bft) 0,0km/h 0,0l/m² 0,001klx 0,0min
04:25 -1,0°C 95,2% -1,6°C 1024,0hPa -1,0°C 0,0km/h (0Bft) 0,0km/h 0,0l/m² 0,000klx 0,0min
04:20 -1,0°C 95,1% -1,6°C 1024,0hPa -1,0°C 0,0km/h (0Bft) 0,0km/h 0,0l/m² 0,000klx 0,0min
04:15 -1,1°C 95,0% -1,7°C 1024,0hPa -1,1°C 0,0km/h (0Bft) 0,0km/h 0,0l/m² 0,000klx 0,0min
04:10 -1,1°C 94,7% -1,7°C 1024,1hPa -1,1°C 0,0km/h (0Bft) 0,0km/h 0,0l/m² 0,001klx 0,0min
04:05 -1,0°C 94,7% -1,6°C 1024,1hPa -1,0°C 0,0km/h (0Bft) 0,0km/h 0,0l/m² 0,000klx 0,0min
04:00 -0,9°C 95,1% -1,5°C 1024,2hPa -0,9°C 0,0km/h (0Bft) 0,0km/h 0,0l/m² 0,001klx 0,0min
03:55 -0,9°C 95,2% -1,4°C 1024,2hPa -0,9°C 0,0km/h (0Bft) 0,0km/h 0,0l/m² 0,001klx 0,0min
03:50 -0,9°C 95,2% -1,5°C 1024,2hPa -0,9°C 0,0km/h (0Bft) 0,0km/h 0,0l/m² 0,001klx 0,0min
03:45 -0,9°C 95,5% -1,5°C 1024,2hPa -0,9°C 0,0km/h (0Bft) 0,0km/h 0,0l/m² 0,000klx 0,0min
03:40 -1,1°C 95,3% -1,6°C 1024,3hPa -1,1°C 0,0km/h (0Bft) 0,0km/h 0,0l/m² 0,001klx 0,0min
03:35 -1,0°C 95,4% -1,6°C 1024,4hPa -1,0°C 0,0km/h (0Bft) 0,0km/h 0,0l/m² 0,001klx 0,0min
03:30 -1,1°C 95,5% -1,6°C 1024,4hPa -1,1°C 0,0km/h (0Bft) 0,0km/h 0,0l/m² 0,001klx 0,0min
03:25 -1,1°C 95,3% -1,7°C 1024,4hPa -1,1°C 0,0km/h (0Bft) 0,0km/h 0,0l/m² 0,001klx 0,0min
03:20 -1,1°C 95,3% -1,7°C 1024,4hPa -1,1°C 0,0km/h (0Bft) 0,0km/h 0,0l/m² 0,001klx 0,0min
03:15 -1,1°C 95,2% -1,7°C 1024,4hPa -1,1°C 0,0km/h (0Bft) 0,0km/h 0,0l/m² 0,000klx 0,0min
03:10 -1,1°C 95,2% -1,7°C 1024,4hPa -1,1°C 0,0km/h (0Bft) 0,0km/h 0,0l/m² 0,000klx 0,0min
03:05 -1,0°C 95,2% -1,6°C 1024,4hPa -1,0°C 0,0km/h (0Bft) 0,0km/h 0,0l/m² 0,001klx 0,0min
03:00 -1,1°C 95,2% -1,7°C 1024,4hPa -1,1°C 0,0km/h (0Bft) 0,0km/h 0,0l/m² 0,000klx 0,0min
02:55 -1,1°C 95,1% -1,7°C 1024,3hPa -1,1°C 0,0km/h (0Bft) 0,0km/h 0,0l/m² 0,000klx 0,0min
02:50 -1,1°C 95,0% -1,7°C 1024,3hPa -1,1°C 0,0km/h (0Bft) 0,0km/h 0,0l/m² 0,001klx 0,0min
02:45 -1,0°C 94,9% -1,7°C 1024,4hPa -1,0°C 0,0km/h (0Bft) 0,0km/h 0,0l/m² 0,000klx 0,0min
02:40 -1,0°C 95,0% -1,6°C 1024,3hPa -1,0°C 0,0km/h (0Bft) 0,0km/h 0,0l/m² 0,001klx 0,0min
02:35 -0,9°C 95,2% -1,5°C 1024,4hPa -0,9°C 0,0km/h (0Bft) 0,0km/h 0,0l/m² 0,001klx 0,0min
02:30 -0,9°C 95,1% -1,5°C 1024,6hPa -0,9°C 0,0km/h (0Bft) 0,0km/h 0,0l/m² 0,001klx 0,0min
02:25 -1,0°C 95,1% -1,6°C 1024,7hPa -1,0°C 0,0km/h (0Bft) 0,0km/h 0,0l/m² 0,001klx 0,0min
02:20 -1,1°C 94,8% -1,7°C 1024,7hPa -1,1°C 0,0km/h (0Bft) 0,0km/h 0,0l/m² 0,001klx 0,0min
02:15 -1,0°C 94,7% -1,7°C 1024,8hPa -1,0°C 0,0km/h (0Bft) 0,0km/h 0,0l/m² 0,001klx 0,0min
02:10 -1,0°C 94,3% -1,7°C 1024,8hPa -1,0°C 0,0km/h (0Bft) 0,0km/h 0,0l/m² 0,001klx 0,0min
02:05 -0,9°C 93,9% -1,6°C 1024,9hPa -0,9°C 0,0km/h (0Bft) 0,0km/h 0,0l/m² 0,000klx 0,0min
02:00 -0,7°C 93,9% -1,5°C 1024,9hPa -0,7°C 0,0km/h (0Bft) 0,0km/h 0,0l/m² 0,000klx 0,0min
01:55 -0,6°C 94,4% -1,3°C 1025,0hPa -0,6°C 0,0km/h (0Bft) 0,0km/h 0,0l/m² 0,000klx 0,0min
01:50 -0,7°C 94,4% -1,4°C 1025,1hPa -0,7°C 0,0km/h (0Bft) 0,0km/h 0,0l/m² 0,001klx 0,0min
01:45 -0,8°C 94,2% -1,5°C 1025,2hPa -0,8°C 0,0km/h (0Bft) 0,0km/h 0,0l/m² 0,000klx 0,0min
01:40 -0,8°C 93,8% -1,5°C 1025,3hPa -0,8°C 0,0km/h (0Bft) 0,0km/h 0,0l/m² 0,001klx 0,0min
01:35 -0,6°C 93,5% -1,4°C 1025,3hPa -0,6°C 0,0km/h (0Bft) 0,0km/h 0,0l/m² 0,000klx 0,0min
01:30 -0,4°C 93,7% -1,2°C 1025,3hPa -0,4°C 0,0km/h (0Bft) 0,0km/h 0,0l/m² 0,000klx 0,0min
01:25 -0,4°C 94,1% -1,1°C 1025,4hPa -0,4°C 0,0km/h (0Bft) 0,0km/h 0,0l/m² 0,000klx 0,0min
01:20 -0,5°C 94,2% -1,3°C 1025,5hPa -0,5°C 0,0km/h (0Bft) 0,0km/h 0,0l/m² 0,001klx 0,0min
01:15 -0,6°C 94,2% -1,3°C 1025,6hPa -0,6°C 0,0km/h (0Bft) 0,0km/h 0,0l/m² 0,000klx 0,0min
01:10 -0,5°C 94,5% -1,2°C 1025,6hPa -0,5°C 0,0km/h (0Bft) 0,0km/h 0,0l/m² 0,001klx 0,0min
01:05 -0,6°C 94,6% -1,3°C 1025,7hPa -0,6°C 0,0km/h (0Bft) 0,0km/h 0,0l/m² 0,000klx 0,0min
01:00 -0,7°C 94,4% -1,4°C 1025,7hPa -0,7°C 0,0km/h (0Bft) 0,0km/h 0,0l/m² 0,001klx 0,0min
00:55 -0,6°C 94,4% -1,3°C 1025,7hPa -0,6°C 0,0km/h (0Bft) 0,0km/h 0,0l/m² 0,001klx 0,0min
00:50 -0,6°C 94,6% -1,3°C 1025,7hPa -0,6°C 0,0km/h (0Bft) 0,0km/h 0,0l/m² 0,001klx 0,0min
00:45 -0,7°C 94,5% -1,4°C 1025,6hPa -0,7°C 0,0km/h (0Bft) 0,0km/h 0,0l/m² 0,001klx 0,0min
00:40 -0,6°C 94,3% -1,3°C 1025,6hPa -0,6°C 0,0km/h (0Bft) 0,0km/h 0,0l/m² 0,000klx 0,0min
00:35 -0,6°C 94,4% -1,3°C 1025,5hPa -0,6°C 0,0km/h (0Bft) 0,0km/h 0,0l/m² 0,000klx 0,0min
00:30 -0,6°C 94,5% -1,3°C 1025,5hPa -0,6°C 0,0km/h (0Bft) 0,0km/h 0,0l/m² 0,001klx 0,0min
00:25 -0,8°C 94,2% -1,5°C 1025,6hPa -0,8°C 0,0km/h (0Bft) 0,0km/h 0,0l/m² 0,001klx 0,0min
00:20 -0,7°C 94,1% -1,4°C 1025,5hPa -0,7°C 0,0km/h (0Bft) 0,0km/h 0,0l/m² 0,000klx 0,0min
00:15 -0,6°C 94,1% -1,4°C 1025,4hPa -0,6°C 0,0km/h (0Bft) 0,0km/h 0,0l/m² 0,000klx 0,0min
00:10 -0,7°C 94,2% -1,4°C 1025,5hPa -0,7°C 0,0km/h (0Bft) 0,0km/h 0,0l/m² 0,001klx 0,0min
00:05 -0,7°C 94,1% -1,4°C 1025,6hPa -0,7°C 0,0km/h (0Bft) 0,0km/h 0,0l/m² 0,001klx 0,0min
00:00 -0,6°C 94,1% -1,4°C 1025,6hPa -0,6°C 0,0km/h (0Bft) 0,0km/h 0,0l/m² 0,001klx 0,0min

Aktuelle Wetterdaten

17.02.2018 21:55 Uhr